sensor_id;sensor_type;location;lat;lon;timestamp;temperature;humidity
21001;DHT22;10658;50.920;12.238;2023-07-31T00:02:33;15.50;99.90
21001;DHT22;10658;50.920;12.238;2023-07-31T00:06:34;15.70;99.90
21001;DHT22;10658;50.920;12.238;2023-07-31T00:10:34;15.80;99.90
21001;DHT22;10658;50.920;12.238;2023-07-31T00:14:35;15.90;99.90
21001;DHT22;10658;50.920;12.238;2023-07-31T00:18:36;16.00;99.90
21001;DHT22;10658;50.920;12.238;2023-07-31T00:22:37;16.00;99.90
21001;DHT22;10658;50.920;12.238;2023-07-31T00:26:38;16.00;99.90
21001;DHT22;10658;50.920;12.238;2023-07-31T00:30:39;16.00;99.90
21001;DHT22;10658;50.920;12.238;2023-07-31T00:34:40;16.10;99.90
21001;DHT22;10658;50.920;12.238;2023-07-31T00:38:41;16.10;99.90
21001;DHT22;10658;50.920;12.238;2023-07-31T00:42:42;16.10;99.90
21001;DHT22;10658;50.920;12.238;2023-07-31T00:46:43;16.10;99.90
21001;DHT22;10658;50.920;12.238;2023-07-31T00:50:44;16.10;99.90
21001;DHT22;10658;50.920;12.238;2023-07-31T00:54:45;16.10;99.90
21001;DHT22;10658;50.920;12.238;2023-07-31T00:58:46;16.10;99.90
21001;DHT22;10658;50.920;12.238;2023-07-31T01:02:47;16.10;99.90
21001;DHT22;10658;50.920;12.238;2023-07-31T01:07:11;16.20;99.90
21001;DHT22;10658;50.920;12.238;2023-07-31T01:11:19;16.20;99.90
21001;DHT22;10658;50.920;12.238;2023-07-31T01:15:22;16.20;99.90
21001;DHT22;10658;50.920;12.238;2023-07-31T01:19:24;16.20;99.90
21001;DHT22;10658;50.920;12.238;2023-07-31T01:23:57;16.20;99.90
21001;DHT22;10658;50.920;12.238;2023-07-31T01:28:12;16.20;99.90
21001;DHT22;10658;50.920;12.238;2023-07-31T01:32:14;16.20;99.90
21001;DHT22;10658;50.920;12.238;2023-07-31T01:36:17;16.10;99.90
21001;DHT22;10658;50.920;12.238;2023-07-31T01:40:18;16.10;99.90
21001;DHT22;10658;50.920;12.238;2023-07-31T01:44:19;16.00;99.90
21001;DHT22;10658;50.920;12.238;2023-07-31T01:48:19;15.90;99.90
21001;DHT22;10658;50.920;12.238;2023-07-31T01:52:20;15.80;99.90
21001;DHT22;10658;50.920;12.238;2023-07-31T01:56:21;15.70;99.90
21001;DHT22;10658;50.920;12.238;2023-07-31T02:00:22;15.60;99.90
21001;DHT22;10658;50.920;12.238;2023-07-31T02:04:23;15.60;99.90
21001;DHT22;10658;50.920;12.238;2023-07-31T02:08:23;15.50;99.90
21001;DHT22;10658;50.920;12.238;2023-07-31T02:12:24;15.40;99.90
21001;DHT22;10658;50.920;12.238;2023-07-31T02:16:25;15.30;99.90
21001;DHT22;10658;50.920;12.238;2023-07-31T02:20:26;15.40;99.90
21001;DHT22;10658;50.920;12.238;2023-07-31T02:24:27;15.30;99.90
21001;DHT22;10658;50.920;12.238;2023-07-31T02:28:28;15.30;99.90
21001;DHT22;10658;50.920;12.238;2023-07-31T02:32:29;15.30;99.90
21001;DHT22;10658;50.920;12.238;2023-07-31T02:36:30;15.30;99.90
21001;DHT22;10658;50.920;12.238;2023-07-31T02:40:31;15.30;99.90
21001;DHT22;10658;50.920;12.238;2023-07-31T02:44:31;15.30;99.90
21001;DHT22;10658;50.920;12.238;2023-07-31T02:48:32;15.30;99.90
21001;DHT22;10658;50.920;12.238;2023-07-31T02:52:33;15.30;99.90
21001;DHT22;10658;50.920;12.238;2023-07-31T02:56:35;15.30;99.90
21001;DHT22;10658;50.920;12.238;2023-07-31T03:00:41;15.30;99.90
21001;DHT22;10658;50.920;12.238;2023-07-31T03:04:42;15.30;99.90
21001;DHT22;10658;50.920;12.238;2023-07-31T03:08:43;15.20;99.90
21001;DHT22;10658;50.920;12.238;2023-07-31T03:12:46;15.10;99.90
21001;DHT22;10658;50.920;12.238;2023-07-31T03:16:49;15.10;99.90
21001;DHT22;10658;50.920;12.238;2023-07-31T03:20:50;15.00;99.90
21001;DHT22;10658;50.920;12.238;2023-07-31T03:24:51;15.00;99.90
21001;DHT22;10658;50.920;12.238;2023-07-31T03:28:52;15.00;99.90
21001;DHT22;10658;50.920;12.238;2023-07-31T03:32:55;14.90;99.90
21001;DHT22;10658;50.920;12.238;2023-07-31T03:36:57;14.90;99.90
21001;DHT22;10658;50.920;12.238;2023-07-31T03:40:59;14.90;99.90
21001;DHT22;10658;50.920;12.238;2023-07-31T03:45:05;14.90;99.90
21001;DHT22;10658;50.920;12.238;2023-07-31T03:49:07;14.90;99.90
21001;DHT22;10658;50.920;12.238;2023-07-31T03:53:09;14.90;99.90
21001;DHT22;10658;50.920;12.238;2023-07-31T03:57:16;14.90;99.90
21001;DHT22;10658;50.920;12.238;2023-07-31T04:01:19;14.80;99.90
21001;DHT22;10658;50.920;12.238;2023-07-31T04:05:23;14.80;99.90
21001;DHT22;10658;50.920;12.238;2023-07-31T04:09:24;14.80;99.90
21001;DHT22;10658;50.920;12.238;2023-07-31T04:13:29;14.80;99.90
21001;DHT22;10658;50.920;12.238;2023-07-31T04:17:32;14.80;99.90
21001;DHT22;10658;50.920;12.238;2023-07-31T04:21:34;14.80;99.90
21001;DHT22;10658;50.920;12.238;2023-07-31T04:25:36;14.80;99.90
21001;DHT22;10658;50.920;12.238;2023-07-31T04:29:39;14.90;99.90
21001;DHT22;10658;50.920;12.238;2023-07-31T04:33:43;14.90;99.90
21001;DHT22;10658;50.920;12.238;2023-07-31T04:37:45;14.90;99.90
21001;DHT22;10658;50.920;12.238;2023-07-31T04:41:51;14.90;99.90
21001;DHT22;10658;50.920;12.238;2023-07-31T04:45:53;15.00;99.90
21001;DHT22;10658;50.920;12.238;2023-07-31T04:49:55;15.00;99.90
21001;DHT22;10658;50.920;12.238;2023-07-31T04:53:56;15.10;99.90
21001;DHT22;10658;50.920;12.238;2023-07-31T04:58:01;15.10;99.90
21001;DHT22;10658;50.920;12.238;2023-07-31T05:02:04;15.10;99.90
21001;DHT22;10658;50.920;12.238;2023-07-31T05:06:07;15.10;99.90
21001;DHT22;10658;50.920;12.238;2023-07-31T05:10:09;15.20;99.90
21001;DHT22;10658;50.920;12.238;2023-07-31T05:14:11;15.20;99.90
21001;DHT22;10658;50.920;12.238;2023-07-31T05:18:15;15.20;99.90
21001;DHT22;10658;50.920;12.238;2023-07-31T05:22:17;15.20;99.90
21001;DHT22;10658;50.920;12.238;2023-07-31T05:26:19;15.30;99.90
21001;DHT22;10658;50.920;12.238;2023-07-31T05:30:21;15.30;99.90
21001;DHT22;10658;50.920;12.238;2023-07-31T05:34:24;15.30;99.90
21001;DHT22;10658;50.920;12.238;2023-07-31T05:38:27;15.30;99.90
21001;DHT22;10658;50.920;12.238;2023-07-31T05:42:29;15.40;99.90
21001;DHT22;10658;50.920;12.238;2023-07-31T05:46:31;15.50;99.90
21001;DHT22;10658;50.920;12.238;2023-07-31T05:50:36;15.60;99.90
21001;DHT22;10658;50.920;12.238;2023-07-31T05:54:43;15.70;99.90
21001;DHT22;10658;50.920;12.238;2023-07-31T05:58:46;15.80;99.90
21001;DHT22;10658;50.920;12.238;2023-07-31T06:02:49;15.90;99.90
21001;DHT22;10658;50.920;12.238;2023-07-31T06:06:52;15.90;99.90
21001;DHT22;10658;50.920;12.238;2023-07-31T06:10:55;16.00;99.90
21001;DHT22;10658;50.920;12.238;2023-07-31T06:14:57;16.10;99.90
21001;DHT22;10658;50.920;12.238;2023-07-31T06:18:58;16.10;99.90
21001;DHT22;10658;50.920;12.238;2023-07-31T06:23:03;16.30;99.90
21001;DHT22;10658;50.920;12.238;2023-07-31T06:27:07;16.40;99.90
21001;DHT22;10658;50.920;12.238;2023-07-31T06:31:09;16.60;99.90
21001;DHT22;10658;50.920;12.238;2023-07-31T06:35:14;16.70;99.90
21001;DHT22;10658;50.920;12.238;2023-07-31T06:39:16;16.90;99.90
21001;DHT22;10658;50.920;12.238;2023-07-31T06:43:19;17.10;99.90
21001;DHT22;10658;50.920;12.238;2023-07-31T06:47:21;17.20;99.90
21001;DHT22;10658;50.920;12.238;2023-07-31T06:51:23;17.30;99.90
21001;DHT22;10658;50.920;12.238;2023-07-31T06:55:26;17.30;99.90
21001;DHT22;10658;50.920;12.238;2023-07-31T06:59:29;17.50;99.90
21001;DHT22;10658;50.920;12.238;2023-07-31T07:03:32;17.60;99.90
21001;DHT22;10658;50.920;12.238;2023-07-31T07:07:35;17.70;99.90
21001;DHT22;10658;50.920;12.238;2023-07-31T07:11:38;17.60;99.90
21001;DHT22;10658;50.920;12.238;2023-07-31T07:15:41;17.70;99.90
21001;DHT22;10658;50.920;12.238;2023-07-31T07:19:44;17.70;99.90
21001;DHT22;10658;50.920;12.238;2023-07-31T07:23:46;17.80;99.90
21001;DHT22;10658;50.920;12.238;2023-07-31T07:27:48;17.80;99.90
21001;DHT22;10658;50.920;12.238;2023-07-31T07:31:50;17.90;99.90
21001;DHT22;10658;50.920;12.238;2023-07-31T07:35:52;17.80;99.90
21001;DHT22;10658;50.920;12.238;2023-07-31T07:39:57;17.70;99.90
21001;DHT22;10658;50.920;12.238;2023-07-31T07:43:59;17.50;99.90
21001;DHT22;10658;50.920;12.238;2023-07-31T07:48:01;17.50;99.90
21001;DHT22;10658;50.920;12.238;2023-07-31T07:52:04;17.50;99.90
21001;DHT22;10658;50.920;12.238;2023-07-31T07:56:07;17.60;99.90
21001;DHT22;10658;50.920;12.238;2023-07-31T08:00:09;17.60;99.90
21001;DHT22;10658;50.920;12.238;2023-07-31T08:04:17;17.70;99.90
21001;DHT22;10658;50.920;12.238;2023-07-31T08:08:20;17.90;99.90
21001;DHT22;10658;50.920;12.238;2023-07-31T08:12:23;17.90;99.90
21001;DHT22;10658;50.920;12.238;2023-07-31T08:16:25;17.90;99.90
21001;DHT22;10658;50.920;12.238;2023-07-31T08:20:27;18.00;99.90
21001;DHT22;10658;50.920;12.238;2023-07-31T08:24:29;18.10;99.90
21001;DHT22;10658;50.920;12.238;2023-07-31T08:28:31;18.30;99.90
21001;DHT22;10658;50.920;12.238;2023-07-31T08:32:33;18.50;99.90
21001;DHT22;10658;50.920;12.238;2023-07-31T08:36:34;18.60;99.90
21001;DHT22;10658;50.920;12.238;2023-07-31T08:40:38;18.60;99.90
21001;DHT22;10658;50.920;12.238;2023-07-31T08:44:39;18.70;99.90
21001;DHT22;10658;50.920;12.238;2023-07-31T08:48:44;18.80;99.90
21001;DHT22;10658;50.920;12.238;2023-07-31T08:52:50;19.10;99.90
21001;DHT22;10658;50.920;12.238;2023-07-31T08:56:52;19.10;99.90
21001;DHT22;10658;50.920;12.238;2023-07-31T09:00:54;19.10;99.90
21001;DHT22;10658;50.920;12.238;2023-07-31T09:04:56;18.90;99.90
21001;DHT22;10658;50.920;12.238;2023-07-31T09:08:57;18.90;99.90
21001;DHT22;10658;50.920;12.238;2023-07-31T09:12:59;19.20;99.90
21001;DHT22;10658;50.920;12.238;2023-07-31T09:17:01;19.50;99.90
21001;DHT22;10658;50.920;12.238;2023-07-31T09:21:04;19.60;99.90
21001;DHT22;10658;50.920;12.238;2023-07-31T09:25:23;19.70;99.90
21001;DHT22;10658;50.920;12.238;2023-07-31T09:29:27;19.60;99.90
21001;DHT22;10658;50.920;12.238;2023-07-31T09:33:29;19.50;99.90
21001;DHT22;10658;50.920;12.238;2023-07-31T09:37:32;19.60;99.90
21001;DHT22;10658;50.920;12.238;2023-07-31T09:41:40;19.50;99.90
21001;DHT22;10658;50.920;12.238;2023-07-31T09:45:42;19.40;99.90
21001;DHT22;10658;50.920;12.238;2023-07-31T09:49:46;19.20;99.90
21001;DHT22;10658;50.920;12.238;2023-07-31T09:53:50;18.70;99.90
21001;DHT22;10658;50.920;12.238;2023-07-31T09:57:53;18.60;99.90
21001;DHT22;10658;50.920;12.238;2023-07-31T10:02:21;18.70;99.90
21001;DHT22;10658;50.920;12.238;2023-07-31T10:06:24;18.90;99.90
21001;DHT22;10658;50.920;12.238;2023-07-31T10:10:25;18.90;99.90
21001;DHT22;10658;50.920;12.238;2023-07-31T10:14:26;18.90;99.90
21001;DHT22;10658;50.920;12.238;2023-07-31T10:18:28;19.30;99.90
21001;DHT22;10658;50.920;12.238;2023-07-31T10:22:30;19.80;99.90
21001;DHT22;10658;50.920;12.238;2023-07-31T10:26:32;20.40;99.90
21001;DHT22;10658;50.920;12.238;2023-07-31T10:30:36;20.80;99.90
21001;DHT22;10658;50.920;12.238;2023-07-31T10:34:39;20.80;99.90
21001;DHT22;10658;50.920;12.238;2023-07-31T10:38:41;21.00;99.90
21001;DHT22;10658;50.920;12.238;2023-07-31T10:42:51;20.70;99.90
21001;DHT22;10658;50.920;12.238;2023-07-31T10:46:54;20.80;99.90
21001;DHT22;10658;50.920;12.238;2023-07-31T10:50:56;20.80;99.90
21001;DHT22;10658;50.920;12.238;2023-07-31T10:55:30;20.90;99.90
21001;DHT22;10658;50.920;12.238;2023-07-31T10:59:35;21.00;99.90
21001;DHT22;10658;50.920;12.238;2023-07-31T11:03:43;21.20;99.90
21001;DHT22;10658;50.920;12.238;2023-07-31T11:07:48;21.40;99.90
21001;DHT22;10658;50.920;12.238;2023-07-31T11:11:49;21.80;99.90
21001;DHT22;10658;50.920;12.238;2023-07-31T11:15:52;22.00;99.90
21001;DHT22;10658;50.920;12.238;2023-07-31T11:19:53;22.10;99.90
21001;DHT22;10658;50.920;12.238;2023-07-31T11:23:57;22.00;99.90
21001;DHT22;10658;50.920;12.238;2023-07-31T11:28:18;21.80;99.90
21001;DHT22;10658;50.920;12.238;2023-07-31T11:32:20;21.90;99.90
21001;DHT22;10658;50.920;12.238;2023-07-31T11:36:21;21.70;99.90
21001;DHT22;10658;50.920;12.238;2023-07-31T11:40:22;21.60;99.90
21001;DHT22;10658;50.920;12.238;2023-07-31T11:44:24;21.50;99.90
21001;DHT22;10658;50.920;12.238;2023-07-31T11:48:27;21.70;99.90
21001;DHT22;10658;50.920;12.238;2023-07-31T11:52:30;21.80;99.90
21001;DHT22;10658;50.920;12.238;2023-07-31T11:56:33;21.70;99.90
21001;DHT22;10658;50.920;12.238;2023-07-31T12:00:34;21.50;99.90
21001;DHT22;10658;50.920;12.238;2023-07-31T12:04:36;21.40;99.90
21001;DHT22;10658;50.920;12.238;2023-07-31T12:08:37;21.20;99.90
21001;DHT22;10658;50.920;12.238;2023-07-31T12:12:38;21.20;99.90
21001;DHT22;10658;50.920;12.238;2023-07-31T12:16:39;21.30;99.90
21001;DHT22;10658;50.920;12.238;2023-07-31T12:20:42;21.40;99.90
21001;DHT22;10658;50.920;12.238;2023-07-31T12:24:44;21.40;99.90
21001;DHT22;10658;50.920;12.238;2023-07-31T12:28:49;21.70;99.90
21001;DHT22;10658;50.920;12.238;2023-07-31T12:32:50;21.90;99.90
21001;DHT22;10658;50.920;12.238;2023-07-31T12:36:54;22.00;99.90
21001;DHT22;10658;50.920;12.238;2023-07-31T12:40:55;22.20;99.90
21001;DHT22;10658;50.920;12.238;2023-07-31T12:44:56;22.40;99.90
21001;DHT22;10658;50.920;12.238;2023-07-31T12:48:58;22.30;99.90
21001;DHT22;10658;50.920;12.238;2023-07-31T12:52:59;22.80;99.90
21001;DHT22;10658;50.920;12.238;2023-07-31T12:57:00;23.40;99.90
21001;DHT22;10658;50.920;12.238;2023-07-31T13:01:01;23.30;99.90
21001;DHT22;10658;50.920;12.238;2023-07-31T13:05:03;23.30;99.90
21001;DHT22;10658;50.920;12.238;2023-07-31T13:09:04;23.00;99.90
21001;DHT22;10658;50.920;12.238;2023-07-31T13:13:05;23.30;99.90
21001;DHT22;10658;50.920;12.238;2023-07-31T13:17:06;23.10;99.90
21001;DHT22;10658;50.920;12.238;2023-07-31T13:21:07;22.90;99.90
21001;DHT22;10658;50.920;12.238;2023-07-31T13:25:08;22.40;99.90
21001;DHT22;10658;50.920;12.238;2023-07-31T13:29:09;22.50;99.90
21001;DHT22;10658;50.920;12.238;2023-07-31T13:33:11;22.50;99.90
21001;DHT22;10658;50.920;12.238;2023-07-31T13:37:13;22.90;99.90
21001;DHT22;10658;50.920;12.238;2023-07-31T13:41:14;23.70;99.90
21001;DHT22;10658;50.920;12.238;2023-07-31T13:45:15;23.80;99.90
21001;DHT22;10658;50.920;12.238;2023-07-31T13:49:16;23.10;99.90
21001;DHT22;10658;50.920;12.238;2023-07-31T13:53:17;22.90;99.90
21001;DHT22;10658;50.920;12.238;2023-07-31T13:57:18;23.20;99.90
21001;DHT22;10658;50.920;12.238;2023-07-31T14:01:18;23.00;99.90
21001;DHT22;10658;50.920;12.238;2023-07-31T14:05:19;22.70;99.90
21001;DHT22;10658;50.920;12.238;2023-07-31T14:09:20;22.80;99.90
21001;DHT22;10658;50.920;12.238;2023-07-31T14:13:22;22.90;99.90
21001;DHT22;10658;50.920;12.238;2023-07-31T14:17:23;22.90;99.90
21001;DHT22;10658;50.920;12.238;2023-07-31T14:21:25;22.70;99.90
21001;DHT22;10658;50.920;12.238;2023-07-31T14:25:26;22.30;99.90
21001;DHT22;10658;50.920;12.238;2023-07-31T14:29:27;22.10;99.90
21001;DHT22;10658;50.920;12.238;2023-07-31T14:33:28;21.70;99.90
21001;DHT22;10658;50.920;12.238;2023-07-31T14:37:40;21.50;99.90
21001;DHT22;10658;50.920;12.238;2023-07-31T14:41:41;21.50;99.90
21001;DHT22;10658;50.920;12.238;2023-07-31T14:45:42;21.30;99.90
21001;DHT22;10658;50.920;12.238;2023-07-31T14:49:43;21.10;99.90
21001;DHT22;10658;50.920;12.238;2023-07-31T14:53:44;21.20;99.90
21001;DHT22;10658;50.920;12.238;2023-07-31T14:57:45;21.20;99.90
21001;DHT22;10658;50.920;12.238;2023-07-31T15:01:46;21.20;99.90
21001;DHT22;10658;50.920;12.238;2023-07-31T15:05:47;21.20;99.90
21001;DHT22;10658;50.920;12.238;2023-07-31T15:09:48;21.30;99.90
21001;DHT22;10658;50.920;12.238;2023-07-31T15:13:50;21.20;99.90
21001;DHT22;10658;50.920;12.238;2023-07-31T15:17:51;21.40;99.90
21001;DHT22;10658;50.920;12.238;2023-07-31T15:21:52;21.40;99.90
21001;DHT22;10658;50.920;12.238;2023-07-31T15:25:53;21.40;99.90
21001;DHT22;10658;50.920;12.238;2023-07-31T15:29:55;21.30;99.90
21001;DHT22;10658;50.920;12.238;2023-07-31T15:33:56;21.30;99.90
21001;DHT22;10658;50.920;12.238;2023-07-31T15:37:57;21.30;99.90
21001;DHT22;10658;50.920;12.238;2023-07-31T15:41:58;21.20;99.90
21001;DHT22;10658;50.920;12.238;2023-07-31T15:45:59;21.10;99.90
21001;DHT22;10658;50.920;12.238;2023-07-31T15:50:00;21.00;99.90
21001;DHT22;10658;50.920;12.238;2023-07-31T15:54:01;21.10;99.90
21001;DHT22;10658;50.920;12.238;2023-07-31T15:58:05;21.00;99.90
21001;DHT22;10658;50.920;12.238;2023-07-31T16:02:16;21.00;99.90
21001;DHT22;10658;50.920;12.238;2023-07-31T16:06:19;21.00;99.90
21001;DHT22;10658;50.920;12.238;2023-07-31T16:10:23;21.00;99.90
21001;DHT22;10658;50.920;12.238;2023-07-31T16:14:28;21.10;99.90
21001;DHT22;10658;50.920;12.238;2023-07-31T16:18:30;21.10;99.90
21001;DHT22;10658;50.920;12.238;2023-07-31T16:22:32;21.20;99.90
21001;DHT22;10658;50.920;12.238;2023-07-31T16:26:38;21.20;99.90
21001;DHT22;10658;50.920;12.238;2023-07-31T16:30:42;21.20;99.90
21001;DHT22;10658;50.920;12.238;2023-07-31T16:34:45;21.20;99.90
21001;DHT22;10658;50.920;12.238;2023-07-31T16:38:47;21.10;99.90
21001;DHT22;10658;50.920;12.238;2023-07-31T16:42:48;21.10;99.90
21001;DHT22;10658;50.920;12.238;2023-07-31T16:46:54;21.10;99.90
21001;DHT22;10658;50.920;12.238;2023-07-31T16:50:56;21.00;99.90
21001;DHT22;10658;50.920;12.238;2023-07-31T16:54:58;21.10;99.90
21001;DHT22;10658;50.920;12.238;2023-07-31T16:58:59;21.10;99.90
21001;DHT22;10658;50.920;12.238;2023-07-31T17:03:02;21.10;99.90
21001;DHT22;10658;50.920;12.238;2023-07-31T17:07:04;21.10;99.90
21001;DHT22;10658;50.920;12.238;2023-07-31T17:11:17;21.10;99.90
21001;DHT22;10658;50.920;12.238;2023-07-31T17:15:18;21.10;99.90
21001;DHT22;10658;50.920;12.238;2023-07-31T17:19:28;21.10;99.90
21001;DHT22;10658;50.920;12.238;2023-07-31T17:23:32;21.10;99.90
21001;DHT22;10658;50.920;12.238;2023-07-31T17:28:07;21.10;99.90
21001;DHT22;10658;50.920;12.238;2023-07-31T17:32:10;21.10;99.90
21001;DHT22;10658;50.920;12.238;2023-07-31T17:36:18;21.00;99.90
21001;DHT22;10658;50.920;12.238;2023-07-31T17:40:26;21.00;99.90
21001;DHT22;10658;50.920;12.238;2023-07-31T17:44:34;21.00;99.90
21001;DHT22;10658;50.920;12.238;2023-07-31T17:48:48;21.00;99.90
21001;DHT22;10658;50.920;12.238;2023-07-31T17:52:54;20.90;99.90
21001;DHT22;10658;50.920;12.238;2023-07-31T17:57:10;20.90;99.90
21001;DHT22;10658;50.920;12.238;2023-07-31T18:01:23;20.80;99.90
21001;DHT22;10658;50.920;12.238;2023-07-31T18:09:34;20.70;99.90
21001;DHT22;10658;50.920;12.238;2023-07-31T18:13:35;20.70;99.90
21001;DHT22;10658;50.920;12.238;2023-07-31T18:17:36;20.60;99.90
21001;DHT22;10658;50.920;12.238;2023-07-31T18:21:38;20.60;99.90
21001;DHT22;10658;50.920;12.238;2023-07-31T18:25:42;20.60;99.90
21001;DHT22;10658;50.920;12.238;2023-07-31T18:29:44;20.50;99.90
21001;DHT22;10658;50.920;12.238;2023-07-31T18:33:45;20.50;99.90
21001;DHT22;10658;50.920;12.238;2023-07-31T18:37:48;20.40;99.90
21001;DHT22;10658;50.920;12.238;2023-07-31T18:41:49;20.40;99.90
21001;DHT22;10658;50.920;12.238;2023-07-31T18:45:50;20.30;99.90
21001;DHT22;10658;50.920;12.238;2023-07-31T18:49:51;20.40;99.90
21001;DHT22;10658;50.920;12.238;2023-07-31T18:53:53;20.40;99.90
21001;DHT22;10658;50.920;12.238;2023-07-31T18:57:54;20.20;99.90
21001;DHT22;10658;50.920;12.238;2023-07-31T19:01:55;20.20;99.90
21001;DHT22;10658;50.920;12.238;2023-07-31T19:06:04;20.20;99.90
21001;DHT22;10658;50.920;12.238;2023-07-31T19:10:05;20.00;99.90
21001;DHT22;10658;50.920;12.238;2023-07-31T19:14:07;20.00;99.90
21001;DHT22;10658;50.920;12.238;2023-07-31T19:18:09;19.90;99.90
21001;DHT22;10658;50.920;12.238;2023-07-31T19:22:10;19.90;99.90
21001;DHT22;10658;50.920;12.238;2023-07-31T19:26:12;19.90;99.90
21001;DHT22;10658;50.920;12.238;2023-07-31T19:30:14;19.90;99.90
21001;DHT22;10658;50.920;12.238;2023-07-31T19:34:15;19.90;99.90
21001;DHT22;10658;50.920;12.238;2023-07-31T19:38:16;20.00;99.90
21001;DHT22;10658;50.920;12.238;2023-07-31T19:42:16;20.00;99.90
21001;DHT22;10658;50.920;12.238;2023-07-31T19:46:18;20.00;99.90
21001;DHT22;10658;50.920;12.238;2023-07-31T19:50:19;20.00;99.90
21001;DHT22;10658;50.920;12.238;2023-07-31T19:54:23;20.00;99.90
21001;DHT22;10658;50.920;12.238;2023-07-31T19:58:29;20.00;99.90
21001;DHT22;10658;50.920;12.238;2023-07-31T20:02:30;19.90;99.90
21001;DHT22;10658;50.920;12.238;2023-07-31T20:06:31;20.00;99.90
21001;DHT22;10658;50.920;12.238;2023-07-31T20:10:32;19.90;99.90
21001;DHT22;10658;50.920;12.238;2023-07-31T20:14:52;19.80;99.90
21001;DHT22;10658;50.920;12.238;2023-07-31T20:18:54;19.80;99.90
21001;DHT22;10658;50.920;12.238;2023-07-31T20:22:55;19.80;99.90
21001;DHT22;10658;50.920;12.238;2023-07-31T20:26:56;19.70;99.90
21001;DHT22;10658;50.920;12.238;2023-07-31T20:30:57;19.70;99.90
21001;DHT22;10658;50.920;12.238;2023-07-31T20:34:57;19.60;99.90
21001;DHT22;10658;50.920;12.238;2023-07-31T20:38:58;19.60;99.90
21001;DHT22;10658;50.920;12.238;2023-07-31T20:42:59;19.50;99.90
21001;DHT22;10658;50.920;12.238;2023-07-31T20:47:00;19.40;99.90
21001;DHT22;10658;50.920;12.238;2023-07-31T20:51:01;19.40;99.90
21001;DHT22;10658;50.920;12.238;2023-07-31T20:55:02;19.30;99.90
21001;DHT22;10658;50.920;12.238;2023-07-31T20:59:03;19.20;99.90
21001;DHT22;10658;50.920;12.238;2023-07-31T21:03:04;19.10;99.90
21001;DHT22;10658;50.920;12.238;2023-07-31T21:07:05;19.00;99.90
21001;DHT22;10658;50.920;12.238;2023-07-31T21:11:08;19.00;99.90
21001;DHT22;10658;50.920;12.238;2023-07-31T21:15:10;18.90;99.90
21001;DHT22;10658;50.920;12.238;2023-07-31T21:19:11;18.80;99.90
21001;DHT22;10658;50.920;12.238;2023-07-31T21:23:14;18.80;99.90
21001;DHT22;10658;50.920;12.238;2023-07-31T21:27:15;18.70;99.90
21001;DHT22;10658;50.920;12.238;2023-07-31T21:31:16;18.60;99.90
21001;DHT22;10658;50.920;12.238;2023-07-31T21:35:18;18.50;99.90
21001;DHT22;10658;50.920;12.238;2023-07-31T21:39:22;18.40;99.90
21001;DHT22;10658;50.920;12.238;2023-07-31T21:43:23;18.30;99.90
21001;DHT22;10658;50.920;12.238;2023-07-31T21:47:24;18.30;99.90
21001;DHT22;10658;50.920;12.238;2023-07-31T21:51:25;18.20;99.90
21001;DHT22;10658;50.920;12.238;2023-07-31T21:55:27;18.10;99.90
21001;DHT22;10658;50.920;12.238;2023-07-31T21:59:29;18.10;99.90
21001;DHT22;10658;50.920;12.238;2023-07-31T22:03:30;18.00;99.90
21001;DHT22;10658;50.920;12.238;2023-07-31T22:07:30;17.90;99.90
21001;DHT22;10658;50.920;12.238;2023-07-31T22:11:31;17.80;99.90
21001;DHT22;10658;50.920;12.238;2023-07-31T22:15:32;17.70;99.90
21001;DHT22;10658;50.920;12.238;2023-07-31T22:19:33;17.70;99.90
21001;DHT22;10658;50.920;12.238;2023-07-31T22:23:33;17.70;99.90
21001;DHT22;10658;50.920;12.238;2023-07-31T22:27:34;17.70;99.90
21001;DHT22;10658;50.920;12.238;2023-07-31T22:31:35;17.60;99.90
21001;DHT22;10658;50.920;12.238;2023-07-31T22:35:35;17.70;99.90
21001;DHT22;10658;50.920;12.238;2023-07-31T22:39:36;17.70;99.90
21001;DHT22;10658;50.920;12.238;2023-07-31T22:43:37;17.60;99.90
21001;DHT22;10658;50.920;12.238;2023-07-31T22:47:38;17.60;99.90
21001;DHT22;10658;50.920;12.238;2023-07-31T22:51:40;17.60;99.90
21001;DHT22;10658;50.920;12.238;2023-07-31T22:55:41;17.60;99.90
21001;DHT22;10658;50.920;12.238;2023-07-31T22:59:42;17.60;99.90
21001;DHT22;10658;50.920;12.238;2023-07-31T23:03:42;17.60;99.90
21001;DHT22;10658;50.920;12.238;2023-07-31T23:07:43;17.60;99.90
21001;DHT22;10658;50.920;12.238;2023-07-31T23:11:44;17.60;99.90
21001;DHT22;10658;50.920;12.238;2023-07-31T23:15:45;17.50;99.90
21001;DHT22;10658;50.920;12.238;2023-07-31T23:19:45;17.50;99.90
21001;DHT22;10658;50.920;12.238;2023-07-31T23:23:46;17.40;99.90
21001;DHT22;10658;50.920;12.238;2023-07-31T23:27:47;17.40;99.90
21001;DHT22;10658;50.920;12.238;2023-07-31T23:31:48;17.30;99.90
21001;DHT22;10658;50.920;12.238;2023-07-31T23:35:48;17.40;99.90
21001;DHT22;10658;50.920;12.238;2023-07-31T23:39:49;17.30;99.90
21001;DHT22;10658;50.920;12.238;2023-07-31T23:43:50;17.30;99.90
21001;DHT22;10658;50.920;12.238;2023-07-31T23:47:52;17.30;99.90
21001;DHT22;10658;50.920;12.238;2023-07-31T23:51:54;17.30;99.90
21001;DHT22;10658;50.920;12.238;2023-07-31T23:55:54;17.30;99.90
21001;DHT22;10658;50.920;12.238;2023-07-31T23:59:55;17.30;99.90
